Time;durP1;ratioP1;P1;durP2;ratioP2;P2;SDS_P1;SDS_P2;PMS_P1;PMS_P2;Temp;Humidity;BMP_temperature;BMP_pressure;BME280_temperature;BME280_humidity;BME280_pressure;Samples;Min_cycle;Max_cycle;Signal;HPM_P1;HPM_P2
2022/12/05 00:00:20;;;;;;;5.75;4.72;;;1.60;99.90;;;;;;462294;257;27477;-65
2022/12/05 00:02:22;;;;;;;6.03;4.32;;;1.60;99.90;;;;;;462298;257;27513;-66
2022/12/05 00:04:23;;;;;;;6.53;4.62;;;1.50;99.90;;;;;;462281;257;28576;-65
2022/12/05 00:06:24;;;;;;;6.20;4.32;;;1.50;99.90;;;;;;462291;257;27982;-65
2022/12/05 00:08:25;;;;;;;6.70;4.93;;;1.50;99.90;;;;;;462299;257;28217;-68
2022/12/05 00:10:27;;;;;;;6.68;4.57;;;1.50;99.90;;;;;;461964;257;27912;-65
2022/12/05 00:12:28;;;;;;;6.57;4.62;;;1.50;99.90;;;;;;462313;257;27494;-67
2022/12/05 00:14:29;;;;;;;7.53;4.47;;;1.60;99.90;;;;;;462292;257;27563;-66
2022/12/05 00:16:30;;;;;;;8.63;5.47;;;1.60;99.90;;;;;;462295;257;27492;-66
2022/12/05 00:18:32;;;;;;;6.80;4.70;;;1.50;99.90;;;;;;462284;257;27476;-66
2022/12/05 00:20:33;;;;;;;7.75;5.45;;;1.60;99.90;;;;;;462316;257;27582;-65
2022/12/05 00:22:34;;;;;;;7.68;5.00;;;1.60;99.90;;;;;;462311;257;27608;-67
2022/12/05 00:24:35;;;;;;;8.60;5.68;;;1.50;99.90;;;;;;462284;257;27473;-65
2022/12/05 00:26:37;;;;;;;7.97;4.85;;;1.50;99.90;;;;;;462272;257;27504;-65
2022/12/05 00:28:38;;;;;;;9.90;5.20;;;1.60;99.90;;;;;;462264;257;27453;-65
2022/12/05 00:30:39;;;;;;;8.30;5.40;;;1.50;99.90;;;;;;462245;257;27465;-65
2022/12/05 00:32:40;;;;;;;7.62;5.10;;;1.60;99.90;;;;;;462304;257;27996;-66
2022/12/05 00:34:42;;;;;;;9.30;5.97;;;1.60;99.90;;;;;;462304;257;27918;-65
2022/12/05 00:36:43;;;;;;;9.60;5.40;;;1.50;99.90;;;;;;462290;257;28072;-65
2022/12/05 00:38:44;;;;;;;7.72;4.85;;;1.60;99.90;;;;;;462297;257;27945;-65
2022/12/05 00:40:45;;;;;;;10.45;5.20;;;1.60;99.90;;;;;;462307;257;27460;-65
2022/12/05 00:42:47;;;;;;;8.52;5.20;;;1.60;99.90;;;;;;462316;257;27589;-66
2022/12/05 00:44:48;;;;;;;8.07;5.25;;;1.50;99.90;;;;;;462296;257;27453;-66
2022/12/05 00:46:49;;;;;;;8.93;5.78;;;1.50;99.90;;;;;;462279;257;27494;-65
2022/12/05 00:48:51;;;;;;;9.60;5.32;;;1.50;99.90;;;;;;462300;257;27540;-65
2022/12/05 00:50:52;;;;;;;7.60;5.40;;;1.50;99.90;;;;;;462330;257;27461;-65
2022/12/05 00:52:53;;;;;;;8.85;4.87;;;1.50;99.90;;;;;;462309;257;27489;-66
2022/12/05 00:54:54;;;;;;;8.80;5.60;;;1.50;99.90;;;;;;462298;257;27501;-65
2022/12/05 00:56:55;;;;;;;7.90;5.65;;;1.50;99.90;;;;;;462289;257;27514;-65
2022/12/05 00:58:57;;;;;;;8.27;4.72;;;1.50;99.90;;;;;;462286;257;28442;-65
2022/12/05 01:00:58;;;;;;;8.18;5.12;;;1.50;99.90;;;;;;462311;257;28074;-65
2022/12/05 01:02:59;;;;;;;8.02;5.20;;;1.50;99.90;;;;;;462303;257;28089;-68
2022/12/05 01:05:00;;;;;;;9.00;5.72;;;1.50;99.90;;;;;;462287;257;27930;-65
2022/12/05 01:07:02;;;;;;;7.78;4.90;;;1.50;99.90;;;;;;462295;257;27508;-66
2022/12/05 01:09:03;;;;;;;7.37;4.87;;;1.50;99.90;;;;;;462297;257;27512;-65
2022/12/05 01:11:04;;;;;;;10.05;5.37;;;1.50;99.90;;;;;;462306;257;27505;-65
2022/12/05 01:13:05;;;;;;;9.38;5.43;;;1.60;99.90;;;;;;462282;257;27573;-67
2022/12/05 01:15:07;;;;;;;13.05;5.95;;;1.60;99.90;;;;;;462302;257;27580;-66
2022/12/05 01:17:08;;;;;;;7.50;5.28;;;1.60;99.90;;;;;;462304;257;27588;-66
2022/12/05 01:19:09;;;;;;;10.02;5.85;;;1.60;99.90;;;;;;462268;257;27534;-65
2022/12/05 01:21:10;;;;;;;11.75;7.18;;;1.60;99.90;;;;;;462324;257;27473;-66
2022/12/05 01:23:12;;;;;;;11.10;4.97;;;1.60;99.90;;;;;;462317;257;27596;-65
2022/12/05 01:25:13;;;;;;;9.55;5.68;;;1.60;99.90;;;;;;462285;257;28049;-66
2022/12/05 01:27:14;;;;;;;8.82;4.95;;;1.60;99.90;;;;;;462279;257;27976;-66
2022/12/05 01:29:15;;;;;;;10.43;5.68;;;1.60;99.90;;;;;;462237;257;28809;-65
2022/12/05 01:31:17;;;;;;;11.85;5.78;;;1.60;99.90;;;;;;462337;257;27461;-65
2022/12/05 01:33:18;;;;;;;7.90;5.05;;;1.60;99.90;;;;;;462331;257;27569;-66
2022/12/05 01:35:19;;;;;;;9.20;5.25;;;1.60;99.90;;;;;;462323;257;27532;-66
2022/12/05 01:37:20;;;;;;;9.02;5.25;;;1.60;99.90;;;;;;462293;257;27520;-66
2022/12/05 01:39:22;;;;;;;10.07;5.72;;;1.70;99.90;;;;;;462263;257;27506;-65
2022/12/05 01:41:23;;;;;;;9.27;5.35;;;1.60;99.90;;;;;;462323;257;27473;-65
2022/12/05 01:43:24;;;;;;;8.15;5.05;;;1.60;99.90;;;;;;462297;257;27581;-67
2022/12/05 01:45:25;;;;;;;8.55;5.10;;;1.60;99.90;;;;;;462298;257;27478;-65
2022/12/05 01:47:27;;;;;;;6.82;5.10;;;1.60;99.90;;;;;;462290;257;27501;-65
2022/12/05 01:49:28;;;;;;;10.65;5.50;;;1.60;99.90;;;;;;462311;257;28402;-65
2022/12/05 01:51:29;;;;;;;8.70;5.53;;;1.60;99.90;;;;;;462304;257;27926;-65
2022/12/05 01:53:30;;;;;;;10.55;6.15;;;1.60;99.90;;;;;;462304;257;27979;-67
2022/12/05 01:55:32;;;;;;;10.30;5.93;;;1.60;99.90;;;;;;462304;257;27582;-65
2022/12/05 01:57:33;;;;;;;8.60;5.65;;;1.60;99.90;;;;;;462291;257;27596;-66
2022/12/05 01:59:34;;;;;;;9.40;5.65;;;1.60;99.90;;;;;;462334;257;27498;-65
2022/12/05 02:01:35;;;;;;;9.30;5.65;;;1.70;99.90;;;;;;462313;257;27480;-65
2022/12/05 02:03:37;;;;;;;8.48;5.55;;;1.70;99.90;;;;;;462308;257;27520;-66
2022/12/05 02:05:38;;;;;;;8.15;5.18;;;1.70;99.90;;;;;;462296;257;27562;-65
2022/12/05 02:07:39;;;;;;;7.75;5.00;;;1.70;99.90;;;;;;462281;257;27573;-66
2022/12/05 02:09:40;;;;;;;7.07;4.87;;;1.70;99.90;;;;;;462320;253;27501;-68
2022/12/05 02:11:42;;;;;;;7.68;5.00;;;1.70;99.90;;;;;;462261;257;27613;-65
2022/12/05 02:13:43;;;;;;;8.80;5.25;;;1.70;99.90;;;;;;462125;257;27949;-66
2022/12/05 02:15:44;;;;;;;8.75;5.15;;;1.70;99.90;;;;;;462122;257;27992;-65
2022/12/05 02:17:45;;;;;;;7.47;4.45;;;1.70;99.90;;;;;;462290;253;27981;-66
2022/12/05 02:19:47;;;;;;;7.05;4.40;;;1.70;99.90;;;;;;462320;257;28186;-65
2022/12/05 02:21:48;;;;;;;8.38;5.10;;;1.70;99.90;;;;;;462316;257;27461;-65
2022/12/05 02:23:49;;;;;;;6.20;4.80;;;1.70;99.90;;;;;;462294;257;27504;-67
2022/12/05 02:25:50;;;;;;;5.60;4.55;;;1.70;99.90;;;;;;462282;257;27453;-66
2022/12/05 02:27:52;;;;;;;6.05;4.10;;;1.80;99.90;;;;;;462250;257;27595;-65
2022/12/05 02:29:53;;;;;;;7.22;4.65;;;1.70;99.90;;;;;;462312;257;27503;-68
2022/12/05 02:31:54;;;;;;;7.65;5.10;;;1.80;99.90;;;;;;462283;257;27606;-65
2022/12/05 02:33:56;;;;;;;7.47;4.80;;;1.70;99.90;;;;;;462266;257;27528;-65
2022/12/05 02:35:57;;;;;;;6.35;4.50;;;1.70;99.90;;;;;;462282;257;27565;-65
2022/12/05 02:37:58;;;;;;;9.40;5.05;;;1.80;99.90;;;;;;470256;233;27821;-66
2022/12/05 02:39:59;;;;;;;8.07;5.00;;;1.80;99.90;;;;;;509306;233;27466;-68
2022/12/05 02:42:01;;;;;;;7.18;4.68;;;1.70;99.90;;;;;;509261;233;27916;-66
2022/12/05 02:44:02;;;;;;;7.65;4.85;;;1.70;99.90;;;;;;509240;233;27884;-66
2022/12/05 02:46:03;;;;;;;6.90;4.43;;;1.80;99.90;;;;;;509249;233;27908;-65
2022/12/05 02:48:04;;;;;;;8.38;5.00;;;1.80;99.90;;;;;;509245;233;27821;-66
2022/12/05 02:50:06;;;;;;;8.63;4.68;;;1.80;99.90;;;;;;509271;233;27341;-68
2022/12/05 02:52:07;;;;;;;6.90;4.68;;;1.80;99.90;;;;;;509265;233;27333;-65
2022/12/05 02:54:08;;;;;;;6.62;4.37;;;1.80;99.90;;;;;;509241;233;27440;-66
2022/12/05 02:56:09;;;;;;;6.45;4.22;;;1.80;99.90;;;;;;509242;233;27326;-65
2022/12/05 02:58:11;;;;;;;8.48;4.62;;;1.80;99.90;;;;;;509269;233;27372;-65
2022/12/05 03:00:12;;;;;;;6.12;4.32;;;1.80;99.90;;;;;;509215;233;27371;-69
2022/12/05 03:02:13;;;;;;;8.02;4.65;;;1.80;99.90;;;;;;509261;233;27420;-65
2022/12/05 03:04:14;;;;;;;7.35;5.12;;;1.80;99.90;;;;;;509267;233;27463;-65
2022/12/05 03:06:16;;;;;;;5.93;3.87;;;1.70;99.90;;;;;;509250;233;27408;-66
2022/12/05 03:08:17;;;;;;;6.65;4.15;;;1.70;99.90;;;;;;509253;233;27412;-65
2022/12/05 03:10:18;;;;;;;6.80;4.65;;;1.70;99.90;;;;;;509231;233;27376;-68
2022/12/05 03:12:19;;;;;;;6.82;4.28;;;1.80;99.90;;;;;;509226;233;27855;-66
2022/12/05 03:14:21;;;;;;;7.57;4.40;;;1.70;99.90;;;;;;509244;233;27860;-66
2022/12/05 03:16:22;;;;;;;6.32;4.43;;;1.80;99.90;;;;;;509231;233;27804;-65
2022/12/05 03:18:23;;;;;;;6.70;4.20;;;1.70;99.90;;;;;;509268;233;27326;-66
2022/12/05 03:20:24;;;;;;;5.05;4.32;;;1.80;99.90;;;;;;509271;233;27438;-67
2022/12/05 03:22:26;;;;;;;6.65;4.45;;;1.80;99.90;;;;;;509265;233;27420;-66
2022/12/05 03:24:27;;;;;;;4.97;3.85;;;1.80;99.90;;;;;;509267;233;27486;-66
2022/12/05 03:26:28;;;;;;;6.65;4.50;;;1.80;99.90;;;;;;509223;233;27411;-65
2022/12/05 03:28:29;;;;;;;5.40;3.83;;;1.80;99.90;;;;;;509270;233;27373;-66
2022/12/05 03:30:31;;;;;;;8.10;4.28;;;1.80;99.90;;;;;;509300;233;27369;-67
2022/12/05 03:32:32;;;;;;;6.87;4.60;;;1.80;99.90;;;;;;509297;233;27345;-66
2022/12/05 03:34:33;;;;;;;6.55;4.32;;;1.80;99.90;;;;;;509291;233;27468;-66
2022/12/05 03:36:34;;;;;;;6.00;4.00;;;1.80;99.90;;;;;;509235;233;27329;-66
2022/12/05 03:38:36;;;;;;;7.40;4.28;;;1.80;99.90;;;;;;509230;233;27380;-66
2022/12/05 03:40:37;;;;;;;5.62;4.28;;;1.90;99.90;;;;;;509276;233;27971;-68
2022/12/05 03:42:38;;;;;;;6.15;4.07;;;1.90;99.90;;;;;;509269;233;27887;-65
2022/12/05 03:44:39;;;;;;;8.63;4.25;;;1.80;99.90;;;;;;509235;233;27867;-66
2022/12/05 03:46:41;;;;;;;6.15;4.05;;;1.90;99.90;;;;;;509238;233;28025;-65
2022/12/05 03:48:42;;;;;;;4.60;3.85;;;1.90;99.90;;;;;;509261;233;27334;-65
2022/12/05 03:50:43;;;;;;;5.03;4.00;;;1.90;99.90;;;;;;509282;233;27422;-68
2022/12/05 03:52:44;;;;;;;5.28;3.72;;;1.90;99.90;;;;;;509263;233;27396;-67
2022/12/05 03:54:46;;;;;;;5.15;3.70;;;1.90;99.90;;;;;;509231;233;27400;-66
2022/12/05 03:56:47;;;;;;;6.75;4.10;;;1.90;99.90;;;;;;509234;233;27344;-66
2022/12/05 03:58:48;;;;;;;5.95;3.70;;;1.90;99.90;;;;;;509250;233;27456;-66
2022/12/05 04:00:49;;;;;;;4.47;3.72;;;1.90;99.90;;;;;;509279;233;27368;-69
2022/12/05 04:02:51;;;;;;;5.37;3.70;;;1.90;99.90;;;;;;509258;233;27379;-66
2022/12/05 04:04:52;;;;;;;5.00;3.87;;;1.90;99.90;;;;;;509227;233;27381;-65
2022/12/05 04:06:53;;;;;;;5.70;4.05;;;1.90;99.90;;;;;;509235;233;27411;-65
2022/12/05 04:08:54;;;;;;;5.32;4.32;;;1.90;99.90;;;;;;509219;233;27889;-66
2022/12/05 04:10:56;;;;;;;5.28;3.70;;;1.90;99.90;;;;;;509266;233;27845;-68
2022/12/05 04:12:57;;;;;;;5.62;4.05;;;1.90;99.90;;;;;;509263;233;27392;-65
2022/12/05 04:14:58;;;;;;;4.80;4.07;;;2.00;99.90;;;;;;509243;233;27392;-66
2022/12/05 04:17:02;;;;;;;4.62;3.95;;;2.00;99.90;;;;;;509223;233;27329;-65
2022/12/05 04:19:04;;;;;;;5.22;4.35;;;2.00;99.90;;;;;;509237;233;27737;-65
2022/12/05 04:23:24;;;;;;;7.15;4.20;;;2.00;99.90;;;;;;491409;241;27514;-66
2022/12/05 04:25:32;;;;;;;4.82;4.03;;;2.00;99.90;;;;;;491499;242;27588;-66
2022/12/05 04:27:33;;;;;;;6.35;4.57;;;1.90;99.90;;;;;;491516;242;28160;-65
2022/12/05 04:29:35;;;;;;;7.75;4.50;;;2.00;99.90;;;;;;491506;242;27508;-66
2022/12/05 04:31:36;;;;;;;5.78;4.20;;;2.00;99.90;;;;;;491501;242;27538;-66
2022/12/05 04:33:37;;;;;;;7.75;4.45;;;2.00;99.90;;;;;;491489;242;27579;-65
2022/12/05 04:35:38;;;;;;;6.18;4.20;;;2.00;99.90;;;;;;491538;239;27552;-68
2022/12/05 04:37:40;;;;;;;6.30;4.35;;;2.00;99.90;;;;;;491535;242;27486;-66
2022/12/05 04:39:41;;;;;;;5.32;3.70;;;2.00;99.90;;;;;;491485;242;27645;-66
2022/12/05 04:41:42;;;;;;;6.57;3.85;;;2.00;99.90;;;;;;491497;242;27599;-65
2022/12/05 04:43:43;;;;;;;5.03;3.72;;;2.00;99.90;;;;;;491462;242;27582;-65
2022/12/05 04:45:45;;;;;;;8.05;5.05;;;2.00;99.90;;;;;;491515;242;27526;-69
2022/12/05 04:47:46;;;;;;;7.68;4.40;;;2.00;99.90;;;;;;491506;242;27573;-66
2022/12/05 04:49:47;;;;;;;4.78;4.15;;;2.10;99.90;;;;;;491509;242;28050;-68
2022/12/05 04:51:48;;;;;;;6.10;4.07;;;2.00;99.90;;;;;;491497;242;28009;-66
2022/12/05 04:53:50;;;;;;;5.93;4.30;;;2.00;99.90;;;;;;491496;239;28067;-66
2022/12/05 04:55:51;;;;;;;6.18;4.12;;;2.10;99.90;;;;;;506275;233;27848;-68
2022/12/05 04:57:52;;;;;;;6.60;4.12;;;2.10;99.90;;;;;;509243;233;27329;-66
2022/12/05 04:59:53;;;;;;;6.75;4.10;;;2.10;99.90;;;;;;509275;233;27392;-65
2022/12/05 05:01:55;;;;;;;5.78;4.07;;;2.10;99.90;;;;;;509000;233;27418;-65
2022/12/05 05:03:56;;;;;;;4.25;3.40;;;2.00;99.90;;;;;;509240;233;27345;-65
2022/12/05 05:05:57;;;;;;;6.68;3.95;;;2.10;99.90;;;;;;509259;233;27507;-69
2022/12/05 05:07:58;;;;;;;5.40;3.97;;;2.10;99.90;;;;;;509255;233;27345;-67
2022/12/05 05:10:00;;;;;;;5.45;4.50;;;2.10;99.90;;;;;;509248;233;27410;-66
2022/12/05 05:12:01;;;;;;;5.65;4.60;;;2.00;99.90;;;;;;509230;233;27373;-65
2022/12/05 05:14:02;;;;;;;6.32;4.50;;;2.00;99.90;;;;;;509190;233;27397;-65
2022/12/05 05:16:03;;;;;;;7.25;4.60;;;2.00;99.90;;;;;;509271;233;27911;-69
2022/12/05 05:18:05;;;;;;;5.70;4.32;;;2.00;99.90;;;;;;509285;233;27793;-66
2022/12/05 05:20:25;;;;;;;5.28;4.00;;;2.00;99.90;;;;;;509286;233;27851;-66
2022/12/05 05:22:26;;;;;;;4.60;3.70;;;2.10;99.90;;;;;;509200;233;27945;-67
2022/12/05 05:24:27;;;;;;;8.88;5.40;;;2.00;99.90;;;;;;509271;233;27325;-66
2022/12/05 05:26:28;;;;;;;7.28;5.32;;;2.00;99.90;;;;;;509258;233;27353;-66
2022/12/05 05:28:29;;;;;;;6.35;4.50;;;2.00;99.90;;;;;;509242;233;27413;-65
2022/12/05 05:30:31;;;;;;;5.87;3.97;;;2.00;99.90;;;;;;509285;233;27828;-65
2022/12/05 05:32:32;;;;;;;6.62;4.60;;;2.10;99.90;;;;;;509267;233;27475;-67
2022/12/05 05:34:33;;;;;;;5.57;3.80;;;2.10;99.90;;;;;;509253;233;27334;-65
2022/12/05 05:36:34;;;;;;;7.00;4.30;;;2.10;99.90;;;;;;509244;233;27499;-66
2022/12/05 05:38:36;;;;;;;5.22;3.75;;;2.10;99.90;;;;;;509213;233;27408;-65
2022/12/05 05:40:37;;;;;;;5.97;4.28;;;2.10;99.90;;;;;;509272;233;27333;-65
2022/12/05 05:42:38;;;;;;;5.30;4.28;;;2.10;99.90;;;;;;509290;233;27380;-66
2022/12/05 05:44:39;;;;;;;6.15;4.05;;;2.10;99.90;;;;;;509273;233;27864;-65
2022/12/05 05:46:41;;;;;;;6.43;4.22;;;2.10;99.90;;;;;;509236;233;27824;-65
2022/12/05 05:48:42;;;;;;;6.18;4.03;;;2.10;99.90;;;;;;509253;233;28009;-65
2022/12/05 05:50:43;;;;;;;6.60;4.37;;;2.10;99.90;;;;;;509285;233;27805;-65
2022/12/05 05:52:44;;;;;;;5.97;4.97;;;2.10;99.90;;;;;;509256;233;27438;-67
2022/12/05 05:54:46;;;;;;;6.32;4.55;;;2.10;99.90;;;;;;509225;233;27408;-66
2022/12/05 05:56:47;;;;;;;6.10;4.35;;;2.10;99.90;;;;;;509244;233;27451;-65
2022/12/05 05:58:48;;;;;;;5.12;4.10;;;2.10;99.90;;;;;;509274;233;27369;-68
2022/12/05 06:00:49;;;;;;;5.90;4.65;;;2.10;99.90;;;;;;509267;233;27426;-65
2022/12/05 06:02:51;;;;;;;7.37;4.37;;;2.10;99.90;;;;;;509236;233;27373;-66
2022/12/05 06:04:52;;;;;;;8.35;4.37;;;2.10;99.90;;;;;;509218;233;27447;-65
2022/12/05 06:06:53;;;;;;;5.35;4.03;;;2.10;99.90;;;;;;509191;233;27463;-65
2022/12/05 06:08:54;;;;;;;4.30;3.90;;;2.20;99.90;;;;;;509262;233;27518;-68
2022/12/05 06:10:56;;;;;;;4.55;3.95;;;2.10;99.90;;;;;;509258;233;27419;-65
2022/12/05 06:12:57;;;;;;;7.85;4.12;;;2.20;99.90;;;;;;509225;233;27841;-66
2022/12/05 06:14:58;;;;;;;6.15;4.12;;;2.20;99.90;;;;;;509199;233;27857;-66
2022/12/05 06:16:59;;;;;;;6.07;3.67;;;2.20;99.90;;;;;;509230;233;27824;-66
2022/12/05 06:19:01;;;;;;;4.15;3.70;;;2.20;99.90;;;;;;509278;233;27864;-68
2022/12/05 06:21:02;;;;;;;6.18;4.12;;;2.20;99.90;;;;;;509238;233;27469;-66
2022/12/05 06:23:03;;;;;;;6.10;4.00;;;2.20;99.90;;;;;;509093;233;27387;-67
2022/12/05 06:25:04;;;;;;;5.70;3.83;;;2.20;99.90;;;;;;509281;233;27337;-66
2022/12/05 06:27:06;;;;;;;4.28;3.67;;;2.20;99.90;;;;;;509275;233;27400;-66
2022/12/05 06:29:07;;;;;;;6.20;4.07;;;2.20;99.90;;;;;;509308;233;27379;-68
2022/12/05 06:31:08;;;;;;;5.90;4.20;;;2.30;99.90;;;;;;509145;233;27368;-66
2022/12/05 06:33:09;;;;;;;5.60;3.80;;;2.30;99.90;;;;;;509291;233;27379;-66
2022/12/05 06:35:14;;;;;;;5.93;3.65;;;2.30;99.90;;;;;;509280;233;27401;-65
2022/12/05 06:37:12;;;;;;;4.87;4.00;;;2.30;99.90;;;;;;508904;233;27440;-66
2022/12/05 06:39:13;;;;;;;5.07;3.85;;;2.30;99.90;;;;;;509296;233;27443;-68
2022/12/05 06:41:14;;;;;;;5.22;4.18;;;2.30;99.90;;;;;;509259;233;27849;-66
2022/12/05 06:43:16;;;;;;;5.35;3.90;;;2.30;99.90;;;;;;509300;233;27853;-66
2022/12/05 06:45:17;;;;;;;6.00;4.40;;;2.30;99.90;;;;;;509282;233;27796;-65
2022/12/05 06:47:18;;;;;;;6.15;3.90;;;2.30;99.90;;;;;;509296;233;27918;-65
2022/12/05 06:49:19;;;;;;;6.22;4.35;;;2.30;99.90;;;;;;509294;233;27353;-68
2022/12/05 06:51:21;;;;;;;6.75;4.10;;;2.30;99.90;;;;;;509263;233;27316;-65
2022/12/05 06:53:22;;;;;;;6.30;4.75;;;2.30;99.90;;;;;;509267;233;27404;-65
2022/12/05 06:55:23;;;;;;;5.05;4.10;;;2.40;99.90;;;;;;509234;233;27334;-65
2022/12/05 06:57:24;;;;;;;7.97;4.43;;;2.40;99.90;;;;;;509217;233;27359;-65
2022/12/05 06:59:27;;;;;;;6.65;4.80;;;2.40;99.90;;;;;;509280;233;27479;-66
2022/12/05 07:01:45;;;;;;;7.15;4.35;;;2.40;99.90;;;;;;509248;233;27376;-66
2022/12/05 07:03:47;;;;;;;9.40;5.68;;;2.50;99.90;;;;;;508575;233;27843;-66
2022/12/05 07:05:43;;;;;;;9.70;5.00;;;2.50;99.90;;;;;;508539;233;27823;-66
2022/12/05 07:07:44;;;;;;;9.85;5.72;;;2.50;99.90;;;;;;509271;233;27899;-65
2022/12/05 07:09:47;;;;;;;11.70;6.15;;;2.50;99.90;;;;;;509273;233;27422;-66
2022/12/05 07:11:47;;;;;;;11.25;5.90;;;2.60;99.90;;;;;;509173;233;27365;-66
2022/12/05 07:13:48;;;;;;;14.77;7.40;;;2.60;99.90;;;;;;509250;233;27317;-65
2022/12/05 07:15:49;;;;;;;10.23;6.70;;;2.60;99.90;;;;;;509226;233;27360;-66
2022/12/05 07:17:50;;;;;;;15.77;8.20;;;2.60;99.90;;;;;;509273;233;27431;-69
2022/12/05 07:19:51;;;;;;;16.73;8.45;;;2.70;99.90;;;;;;509258;233;27474;-66
2022/12/05 07:21:53;;;;;;;16.23;8.02;;;2.70;99.90;;;;;;509253;233;27385;-66
2022/12/05 07:23:54;;;;;;;18.25;8.43;;;2.70;99.90;;;;;;509247;233;27805;-65
2022/12/05 07:25:56;;;;;;;12.60;7.43;;;2.70;99.90;;;;;;509258;233;27864;-66
2022/12/05 07:27:56;;;;;;;17.37;8.60;;;2.70;99.90;;;;;;509213;233;28096;-65
2022/12/05 07:29:58;;;;;;;18.10;8.50;;;2.70;99.90;;;;;;509269;233;27384;-65
2022/12/05 07:31:59;;;;;;;17.30;8.63;;;2.70;99.90;;;;;;509268;233;27387;-66
2022/12/05 07:34:00;;;;;;;16.17;9.07;;;2.70;99.90;;;;;;509249;233;27333;-66
2022/12/05 07:36:01;;;;;;;15.10;8.18;;;2.80;99.90;;;;;;509218;233;27369;-66
2022/12/05 07:38:03;;;;;;;13.93;8.18;;;2.80;99.90;;;;;;509266;233;27387;-69
2022/12/05 07:40:04;;;;;;;17.67;8.00;;;2.80;99.90;;;;;;509263;233;27329;-65
2022/12/05 07:42:05;;;;;;;20.85;7.72;;;2.80;99.90;;;;;;509228;233;27474;-66
2022/12/05 07:44:07;;;;;;;15.25;8.45;;;2.80;99.90;;;;;;509237;233;27792;-65
2022/12/05 07:46:08;;;;;;;20.25;9.38;;;2.80;99.90;;;;;;509206;233;27874;-65
2022/12/05 07:48:09;;;;;;;18.80;9.43;;;2.80;99.90;;;;;;509268;233;27840;-69
2022/12/05 07:50:10;;;;;;;22.45;10.27;;;2.80;99.90;;;;;;509259;233;27324;-65
2022/12/05 07:52:11;;;;;;;19.80;9.13;;;2.80;99.90;;;;;;509270;233;27374;-67
2022/12/05 07:54:13;;;;;;;20.73;9.60;;;2.90;99.90;;;;;;509212;233;27333;-66
2022/12/05 07:56:15;;;;;;;23.65;10.63;;;2.90;99.90;;;;;;509228;233;27451;-66
2022/12/05 07:58:15;;;;;;;23.55;10.38;;;2.90;99.90;;;;;;509194;233;27480;-67
2022/12/05 08:00:16;;;;;;;16.58;9.15;;;2.90;99.90;;;;;;509282;233;27427;-65
2022/12/05 08:02:18;;;;;;;17.83;9.32;;;2.90;99.90;;;;;;509205;233;27948;-66
2022/12/05 08:04:19;;;;;;;17.65;9.60;;;2.90;99.90;;;;;;509214;233;28872;-66
2022/12/05 08:06:20;;;;;;;15.18;8.82;;;2.90;99.90;;;;;;509255;233;27883;-65
2022/12/05 08:08:21;;;;;;;20.23;10.45;;;2.90;99.90;;;;;;508790;233;27377;-67
2022/12/05 08:10:23;;;;;;;18.30;9.85;;;2.90;99.90;;;;;;508835;233;27438;-65
2022/12/05 08:12:24;;;;;;;17.85;9.55;;;3.00;99.90;;;;;;509026;233;27401;-66
2022/12/05 08:14:25;;;;;;;19.50;10.23;;;3.00;99.90;;;;;;508972;233;27480;-65
2022/12/05 08:16:26;;;;;;;21.23;10.27;;;3.00;99.90;;;;;;509067;233;27356;-65
2022/12/05 08:18:28;;;;;;;20.92;10.50;;;3.00;99.90;;;;;;509167;233;27369;-66
2022/12/05 08:20:29;;;;;;;18.92;9.50;;;3.00;99.90;;;;;;509239;233;28653;-66
2022/12/05 08:22:30;;;;;;;17.60;10.25;;;3.00;99.90;;;;;;509270;233;28998;-66
2022/12/05 08:24:31;;;;;;;20.23;10.02;;;3.00;99.90;;;;;;509309;233;27444;-68
2022/12/05 08:26:33;;;;;;;21.75;11.18;;;3.00;99.90;;;;;;509274;233;27325;-65
2022/12/05 08:28:34;;;;;;;20.73;11.85;;;3.10;99.90;;;;;;509279;233;27373;-66
2022/12/05 08:30:35;;;;;;;22.45;11.07;;;3.10;99.90;;;;;;509235;233;27345;-65
2022/12/05 08:32:37;;;;;;;17.70;9.57;;;3.10;99.90;;;;;;509243;233;27353;-65
2022/12/05 08:34:38;;;;;;;19.12;10.65;;;3.10;99.90;;;;;;509247;233;27364;-68
2022/12/05 08:36:39;;;;;;;22.08;10.82;;;3.10;99.90;;;;;;509235;233;27778;-66
2022/12/05 08:38:40;;;;;;;18.98;9.60;;;3.10;99.90;;;;;;509259;233;27848;-65
2022/12/05 08:40:42;;;;;;;17.83;9.68;;;3.20;99.90;;;;;;509225;233;27464;-66
2022/12/05 08:42:43;;;;;;;20.73;11.07;;;3.20;99.90;;;;;;509272;233;27437;-66
2022/12/05 08:44:44;;;;;;;18.60;10.73;;;3.10;99.90;;;;;;509269;233;27368;-67
2022/12/05 08:46:45;;;;;;;18.67;10.10;;;3.10;99.90;;;;;;509230;233;27391;-65
2022/12/05 08:48:47;;;;;;;21.65;11.10;;;3.10;99.90;;;;;;509203;233;27369;-66
2022/12/05 08:50:48;;;;;;;18.73;9.70;;;3.10;99.90;;;;;;509221;233;27388;-66
2022/12/05 08:52:49;;;;;;;19.33;10.60;;;3.20;99.90;;;;;;509236;233;27789;-65
2022/12/05 08:54:50;;;;;;;19.10;10.57;;;3.10;99.90;;;;;;509249;232;27948;-67
2022/12/05 08:56:52;;;;;;;17.77;10.60;;;3.20;99.90;;;;;;509287;233;27377;-65
2022/12/05 08:58:53;;;;;;;21.95;10.20;;;3.20;99.90;;;;;;509182;233;27369;-65
2022/12/05 09:00:54;;;;;;;15.77;8.82;;;3.20;99.90;;;;;;509253;233;27427;-65
2022/12/05 09:02:55;;;;;;;18.60;9.60;;;3.20;99.90;;;;;;509280;233;27361;-65
2022/12/05 09:04:57;;;;;;;21.45;10.23;;;3.20;99.90;;;;;;509232;233;27495;-66
2022/12/05 09:06:58;;;;;;;25.50;11.40;;;3.20;99.90;;;;;;509090;233;27338;-66
2022/12/05 09:08:59;;;;;;;19.00;10.63;;;3.20;99.90;;;;;;509266;233;27388;-66
2022/12/05 09:11:00;;;;;;;19.30;10.55;;;3.20;99.90;;;;;;509296;233;29103;-68
2022/12/05 09:13:02;;;;;;;18.98;9.85;;;3.20;99.90;;;;;;509286;233;27385;-66
2022/12/05 09:15:03;;;;;;;22.75;10.93;;;3.20;99.90;;;;;;509243;233;27372;-67
2022/12/05 09:17:04;;;;;;;22.92;10.90;;;3.20;99.90;;;;;;509247;233;27409;-65
2022/12/05 09:19:05;;;;;;;23.35;11.48;;;3.20;99.90;;;;;;509234;233;27368;-66
2022/12/05 09:21:07;;;;;;;23.77;10.60;;;3.20;99.90;;;;;;509276;233;27360;-68
2022/12/05 09:23:08;;;;;;;22.55;10.80;;;3.20;99.90;;;;;;509274;233;27337;-66
2022/12/05 09:25:09;;;;;;;25.50;10.90;;;3.20;99.90;;;;;;509274;233;27922;-66
2022/12/05 09:27:10;;;;;;;23.48;10.48;;;3.20;99.90;;;;;;509280;233;27776;-65
2022/12/05 09:29:12;;;;;;;17.25;9.57;;;3.20;99.90;;;;;;505648;233;35655;-65
2022/12/05 09:31:13;;;;;;;19.33;10.23;;;3.20;99.90;;;;;;509290;233;27543;-65
2022/12/05 09:33:14;;;;;;;20.48;9.40;;;3.20;99.90;;;;;;509271;233;27370;-66
2022/12/05 09:35:15;;;;;;;17.58;8.88;;;3.20;99.90;;;;;;509267;233;27377;-67
2022/12/05 09:37:17;;;;;;;18.23;8.85;;;3.20;99.90;;;;;;509256;233;27348;-65
2022/12/05 09:39:19;;;;;;;20.85;10.27;;;3.30;99.90;;;;;;509247;233;27381;-65
2022/12/05 09:41:20;;;;;;;16.58;8.85;;;3.20;99.90;;;;;;508962;233;27579;-68
2022/12/05 09:43:20;;;;;;;19.37;9.30;;;3.30;99.90;;;;;;509222;233;27818;-66
2022/12/05 09:45:22;;;;;;;16.23;8.90;;;3.30;99.90;;;;;;509259;233;27961;-66
2022/12/05 09:47:23;;;;;;;16.08;8.90;;;3.30;99.90;;;;;;509244;233;27329;-65
2022/12/05 09:49:24;;;;;;;18.95;9.88;;;3.30;99.90;;;;;;509258;233;27443;-65
2022/12/05 09:51:25;;;;;;;17.50;9.45;;;3.30;99.90;;;;;;509267;233;27361;-68
2022/12/05 09:53:27;;;;;;;14.00;8.20;;;3.30;99.90;;;;;;509288;233;27349;-65
2022/12/05 09:55:28;;;;;;;17.65;9.30;;;3.30;99.90;;;;;;509270;233;27345;-66
2022/12/05 09:57:29;;;;;;;16.95;8.90;;;3.30;99.90;;;;;;509240;233;27341;-65
2022/12/05 09:59:30;;;;;;;16.80;8.75;;;3.30;99.90;;;;;;509241;233;27337;-65
2022/12/05 10:01:32;;;;;;;16.52;9.23;;;3.30;99.90;;;;;;509289;233;27879;-68
2022/12/05 10:03:33;;;;;;;19.20;9.10;;;3.30;99.90;;;;;;509318;233;27873;-66
2022/12/05 10:05:34;;;;;;;16.12;8.85;;;3.30;99.90;;;;;;509298;233;27926;-65
2022/12/05 10:07:36;;;;;;;19.42;9.60;;;3.30;99.90;;;;;;509285;233;27369;-65
2022/12/05 10:09:37;;;;;;;17.02;10.40;;;3.30;99.90;;;;;;509275;233;27333;-66
2022/12/05 10:11:38;;;;;;;15.20;9.35;;;3.40;99.90;;;;;;509273;233;27357;-68
2022/12/05 10:13:39;;;;;;;18.12;10.57;;;3.30;99.90;;;;;;509276;233;27407;-65
2022/12/05 10:15:41;;;;;;;21.80;10.20;;;3.40;99.90;;;;;;509214;233;27475;-66
2022/12/05 10:17:42;;;;;;;18.92;8.93;;;3.40;99.90;;;;;;509227;233;27332;-66
2022/12/05 10:19:43;;;;;;;15.60;8.90;;;3.40;99.90;;;;;;509265;233;27884;-66
2022/12/05 10:21:44;;;;;;;15.65;8.60;;;3.40;99.90;;;;;;509271;233;27868;-68
2022/12/05 10:23:46;;;;;;;17.25;9.30;;;3.40;99.90;;;;;;509246;233;28892;-66
2022/12/05 10:25:47;;;;;;;16.55;9.02;;;3.40;99.90;;;;;;509243;233;27372;-66
2022/12/05 10:27:48;;;;;;;14.90;8.55;;;3.50;99.90;;;;;;509244;232;27365;-65
2022/12/05 10:29:49;;;;;;;15.52;8.50;;;3.40;99.90;;;;;;509284;233;27399;-66
2022/12/05 10:31:51;;;;;;;17.08;9.00;;;3.50;99.90;;;;;;509273;233;27455;-67
2022/12/05 10:33:52;;;;;;;18.95;9.80;;;3.50;99.90;;;;;;509251;233;27388;-65
2022/12/05 10:35:53;;;;;;;14.55;8.20;;;3.50;99.90;;;;;;509229;233;27380;-65
2022/12/05 10:37:54;;;;;;;18.42;9.05;;;3.60;99.90;;;;;;509258;233;27771;-66